sensor_id;sensor_type;location;lat;lon;timestamp;pressure;altitude;pressure_sealevel;temperature;humidity
64704;BME280;51130;52.298;13.686;2022-08-02T00:00:49;76894.84;;;-141.89;71.24
64704;BME280;51130;52.298;13.686;2022-08-02T00:03:20;76894.84;;;-141.89;71.45
64704;BME280;51130;52.298;13.686;2022-08-02T00:05:49;76896.84;;;-141.89;71.50
64704;BME280;51130;52.298;13.686;2022-08-02T00:08:19;76902.88;;;-141.89;71.32
64704;BME280;51130;52.298;13.686;2022-08-02T00:10:45;76906.88;;;-141.89;71.25
64704;BME280;51130;52.298;13.686;2022-08-02T00:13:12;76904.88;;;-141.89;71.34
64704;BME280;51130;52.298;13.686;2022-08-02T00:15:38;76908.88;;;-141.89;71.43
64704;BME280;51130;52.298;13.686;2022-08-02T00:18:05;76906.88;;;-141.89;71.28
64704;BME280;51130;52.298;13.686;2022-08-02T00:20:31;76906.88;;;-141.89;71.33
64704;BME280;51130;52.298;13.686;2022-08-02T00:22:57;76910.88;;;-141.89;71.21
64704;BME280;51130;52.298;13.686;2022-08-02T00:25:24;76906.88;;;-141.89;71.35
64704;BME280;51130;52.298;13.686;2022-08-02T00:27:50;76908.88;;;-141.89;71.36
64704;BME280;51130;52.298;13.686;2022-08-02T00:30:17;76906.88;;;-141.89;71.35
64704;BME280;51130;52.298;13.686;2022-08-02T00:32:43;76906.88;;;-141.89;71.33
64704;BME280;51130;52.298;13.686;2022-08-02T00:35:10;76904.88;;;-141.89;71.23
64704;BME280;51130;52.298;13.686;2022-08-02T00:37:39;76906.88;;;-141.89;71.39
64704;BME280;51130;52.298;13.686;2022-08-02T00:40:07;76906.88;;;-141.89;71.43
64704;BME280;51130;52.298;13.686;2022-08-02T00:42:33;76908.88;;;-141.89;71.34
64704;BME280;51130;52.298;13.686;2022-08-02T00:45:00;76910.88;;;-141.89;71.37
64704;BME280;51130;52.298;13.686;2022-08-02T00:47:26;76906.88;;;-141.89;71.36
64704;BME280;51130;52.298;13.686;2022-08-02T00:49:53;76914.88;;;-141.89;71.32
64704;BME280;51130;52.298;13.686;2022-08-02T00:52:19;76914.88;;;-141.89;71.43
64704;BME280;51130;52.298;13.686;2022-08-02T00:54:45;76918.88;;;-141.89;71.25
64704;BME280;51130;52.298;13.686;2022-08-02T00:57:12;76922.88;;;-141.89;71.44
64704;BME280;51130;52.298;13.686;2022-08-02T00:59:38;76918.88;;;-141.89;71.40
64704;BME280;51130;52.298;13.686;2022-08-02T01:02:07;76918.88;;;-141.89;71.14
64704;BME280;51130;52.298;13.686;2022-08-02T01:04:34;76920.88;;;-141.89;71.48
64704;BME280;51130;52.298;13.686;2022-08-02T01:07:01;76918.88;;;-141.89;71.36
64704;BME280;51130;52.298;13.686;2022-08-02T01:09:39;76926.88;;;-141.89;71.44
64704;BME280;51130;52.298;13.686;2022-08-02T01:12:06;76926.88;;;-141.89;71.52
64704;BME280;51130;52.298;13.686;2022-08-02T01:14:33;76928.88;;;-141.89;71.39
64704;BME280;51130;52.298;13.686;2022-08-02T01:17:07;76930.88;;;-141.89;71.37
64704;BME280;51130;52.298;13.686;2022-08-02T01:19:37;76930.88;;;-141.89;71.67
64704;BME280;51130;52.298;13.686;2022-08-02T01:27:25;76930.88;;;-141.89;71.66
64704;BME280;51130;52.298;13.686;2022-08-02T01:29:55;76930.88;;;-141.89;71.63
64704;BME280;51130;52.298;13.686;2022-08-02T01:32:24;76926.88;;;-141.89;71.64
64704;BME280;51130;52.298;13.686;2022-08-02T01:34:54;76928.88;;;-141.89;71.59
64704;BME280;51130;52.298;13.686;2022-08-02T01:37:23;76932.88;;;-141.89;71.61
64704;BME280;51130;52.298;13.686;2022-08-02T01:39:53;76926.88;;;-141.89;71.23
64704;BME280;51130;52.298;13.686;2022-08-02T01:42:20;76920.88;;;-141.89;71.35
64704;BME280;51130;52.298;13.686;2022-08-02T01:44:48;76922.88;;;-141.89;71.51
64704;BME280;51130;52.298;13.686;2022-08-02T01:47:16;76916.88;;;-141.89;71.28
64704;BME280;51130;52.298;13.686;2022-08-02T01:49:45;76914.88;;;-141.89;71.29
64704;BME280;51130;52.298;13.686;2022-08-02T01:52:13;76916.88;;;-141.89;71.52
64704;BME280;51130;52.298;13.686;2022-08-02T01:57:17;76918.88;;;-141.89;71.20
64704;BME280;51130;52.298;13.686;2022-08-02T01:59:45;76922.88;;;-141.89;71.42
64704;BME280;51130;52.298;13.686;2022-08-02T02:02:12;76928.88;;;-141.89;71.39
64704;BME280;51130;52.298;13.686;2022-08-02T02:04:40;76922.88;;;-141.89;71.34
64704;BME280;51130;52.298;13.686;2022-08-02T02:07:08;76918.88;;;-141.89;71.33
64704;BME280;51130;52.298;13.686;2022-08-02T02:09:37;76914.88;;;-141.89;71.23
64704;BME280;51130;52.298;13.686;2022-08-02T02:12:15;76918.88;;;-141.89;71.21
64704;BME280;51130;52.298;13.686;2022-08-02T02:14:43;76922.88;;;-141.89;71.24
64704;BME280;51130;52.298;13.686;2022-08-02T02:17:17;76918.88;;;-141.89;71.25
64704;BME280;51130;52.298;13.686;2022-08-02T02:20:03;76910.88;;;-141.89;71.44
64704;BME280;51130;52.298;13.686;2022-08-02T02:22:30;76904.88;;;-141.89;71.44
64704;BME280;51130;52.298;13.686;2022-08-02T02:24:57;76904.88;;;-141.89;71.29
64704;BME280;51130;52.298;13.686;2022-08-02T02:27:23;76910.88;;;-141.89;71.48
64704;BME280;51130;52.298;13.686;2022-08-02T02:29:50;76908.88;;;-141.89;71.20
64704;BME280;51130;52.298;13.686;2022-08-02T02:32:18;76906.88;;;-141.89;71.23
64704;BME280;51130;52.298;13.686;2022-08-02T02:34:45;76906.88;;;-141.89;71.26
64704;BME280;51130;52.298;13.686;2022-08-02T02:37:15;76906.88;;;-141.89;71.26
64704;BME280;51130;52.298;13.686;2022-08-02T02:39:43;76906.88;;;-141.89;71.36
64704;BME280;51130;52.298;13.686;2022-08-02T02:42:12;76902.88;;;-141.89;71.29
64704;BME280;51130;52.298;13.686;2022-08-02T02:44:40;76906.88;;;-141.89;71.22
64704;BME280;51130;52.298;13.686;2022-08-02T02:47:07;76902.88;;;-141.89;71.50
64704;BME280;51130;52.298;13.686;2022-08-02T02:49:35;76898.88;;;-141.89;71.29
64704;BME280;51130;52.298;13.686;2022-08-02T02:52:03;76904.88;;;-141.89;71.33
64704;BME280;51130;52.298;13.686;2022-08-02T02:54:31;76908.88;;;-141.89;71.17
64704;BME280;51130;52.298;13.686;2022-08-02T02:57:00;76902.88;;;-141.89;71.32
64704;BME280;51130;52.298;13.686;2022-08-02T02:59:28;76902.88;;;-141.89;71.36
64704;BME280;51130;52.298;13.686;2022-08-02T03:01:55;76906.88;;;-141.89;71.46
64704;BME280;51130;52.298;13.686;2022-08-02T03:04:24;76918.88;;;-141.89;71.48
64704;BME280;51130;52.298;13.686;2022-08-02T03:06:52;76918.88;;;-141.89;71.42
64704;BME280;51130;52.298;13.686;2022-08-02T03:09:18;76922.88;;;-141.89;71.31
64704;BME280;51130;52.298;13.686;2022-08-02T03:11:45;76914.88;;;-141.89;71.33
64704;BME280;51130;52.298;13.686;2022-08-02T03:14:11;76928.88;;;-141.89;71.31
64704;BME280;51130;52.298;13.686;2022-08-02T03:16:42;76926.88;;;-141.89;71.44
64704;BME280;51130;52.298;13.686;2022-08-02T03:19:08;76930.88;;;-141.89;71.41
64704;BME280;51130;52.298;13.686;2022-08-02T03:21:35;76930.88;;;-141.89;71.44
64704;BME280;51130;52.298;13.686;2022-08-02T03:24:01;76934.91;;;-141.89;71.25
64704;BME280;51130;52.298;13.686;2022-08-02T03:26:28;76930.88;;;-141.89;71.44
64704;BME280;51130;52.298;13.686;2022-08-02T03:28:54;76934.91;;;-141.89;71.56
64704;BME280;51130;52.298;13.686;2022-08-02T03:31:21;76934.91;;;-141.89;71.32
64704;BME280;51130;52.298;13.686;2022-08-02T03:33:47;76938.91;;;-141.89;71.29
64704;BME280;51130;52.298;13.686;2022-08-02T03:36:15;76938.91;;;-141.89;71.24
64704;BME280;51130;52.298;13.686;2022-08-02T03:38:42;76942.91;;;-141.89;71.37
64704;BME280;51130;52.298;13.686;2022-08-02T03:41:10;76946.91;;;-141.89;71.39
64704;BME280;51130;52.298;13.686;2022-08-02T03:43:37;76950.91;;;-141.89;71.31
64704;BME280;51130;52.298;13.686;2022-08-02T03:46:05;76948.91;;;-141.89;71.46
64704;BME280;51130;52.298;13.686;2022-08-02T03:48:32;76950.91;;;-141.89;71.54
64704;BME280;51130;52.298;13.686;2022-08-02T03:51:00;76954.91;;;-141.89;71.52
64704;BME280;51130;52.298;13.686;2022-08-02T03:53:27;76958.91;;;-141.89;71.59
64704;BME280;51130;52.298;13.686;2022-08-02T03:55:53;76958.91;;;-141.89;71.50
64704;BME280;51130;52.298;13.686;2022-08-02T03:58:21;76958.91;;;-141.89;71.40
64704;BME280;51130;52.298;13.686;2022-08-02T04:00:48;76960.91;;;-141.89;71.36
64704;BME280;51130;52.298;13.686;2022-08-02T04:03:15;76958.91;;;-141.89;71.42
64704;BME280;51130;52.298;13.686;2022-08-02T04:05:45;76958.91;;;-141.89;71.55
64704;BME280;51130;52.298;13.686;2022-08-02T04:08:29;76962.91;;;-141.89;71.61
64704;BME280;51130;52.298;13.686;2022-08-02T04:11:03;76954.91;;;-141.89;71.26
64704;BME280;51130;52.298;13.686;2022-08-02T04:13:47;76950.91;;;-141.89;71.18
64704;BME280;51130;52.298;13.686;2022-08-02T04:16:17;76942.91;;;-141.89;70.92
64704;BME280;51130;52.298;13.686;2022-08-02T04:18:55;76938.91;;;-141.89;70.41
64704;BME280;51130;52.298;13.686;2022-08-02T04:21:23;76926.88;;;-141.89;70.32
64704;BME280;51130;52.298;13.686;2022-08-02T04:24:12;76928.88;;;-141.89;70.25
64704;BME280;51130;52.298;13.686;2022-08-02T04:26:44;76932.88;;;-141.89;70.33
64704;BME280;51130;52.298;13.686;2022-08-02T04:29:15;76928.88;;;-141.89;70.33
64704;BME280;51130;52.298;13.686;2022-08-02T04:31:42;76932.88;;;-141.89;70.34
64704;BME280;51130;52.298;13.686;2022-08-02T04:34:09;76938.91;;;-141.89;70.31
64704;BME280;51130;52.298;13.686;2022-08-02T04:36:40;76926.88;;;-141.89;70.41
64704;BME280;51130;52.298;13.686;2022-08-02T04:39:07;76934.91;;;-141.89;70.63
64704;BME280;51130;52.298;13.686;2022-08-02T04:41:40;76932.88;;;-141.89;70.40
64704;BME280;51130;52.298;13.686;2022-08-02T04:44:09;76934.91;;;-141.89;70.53
64704;BME280;51130;52.298;13.686;2022-08-02T04:46:36;76942.91;;;-141.89;70.39
64704;BME280;51130;52.298;13.686;2022-08-02T04:49:03;76938.91;;;-141.89;70.51
64704;BME280;51130;52.298;13.686;2022-08-02T04:51:32;76938.91;;;-141.89;70.47
64704;BME280;51130;52.298;13.686;2022-08-02T04:54:04;76944.91;;;-141.89;70.61
64704;BME280;51130;52.298;13.686;2022-08-02T04:56:35;76942.91;;;-141.89;70.57
64704;BME280;51130;52.298;13.686;2022-08-02T04:59:01;76946.91;;;-141.89;70.59
64704;BME280;51130;52.298;13.686;2022-08-02T05:01:28;76946.91;;;-141.89;70.43
64704;BME280;51130;52.298;13.686;2022-08-02T05:03:54;76956.91;;;-141.89;70.49
64704;BME280;51130;52.298;13.686;2022-08-02T05:06:20;76960.91;;;-141.89;70.59
64704;BME280;51130;52.298;13.686;2022-08-02T05:08:47;76958.91;;;-141.89;70.73
64704;BME280;51130;52.298;13.686;2022-08-02T05:11:18;76958.91;;;-141.89;70.69
64704;BME280;51130;52.298;13.686;2022-08-02T05:13:44;76962.91;;;-141.89;70.70
64704;BME280;51130;52.298;13.686;2022-08-02T05:16:24;76962.91;;;-141.89;70.66
64704;BME280;51130;52.298;13.686;2022-08-02T05:18:56;76966.91;;;-141.89;70.69
64704;BME280;51130;52.298;13.686;2022-08-02T05:21:23;76978.94;;;-141.89;70.50
64704;BME280;51130;52.298;13.686;2022-08-02T05:23:49;76978.94;;;-141.89;70.86
64704;BME280;51130;52.298;13.686;2022-08-02T05:26:16;76980.94;;;-141.89;70.75
64704;BME280;51130;52.298;13.686;2022-08-02T05:28:42;76976.94;;;-141.89;70.75
64704;BME280;51130;52.298;13.686;2022-08-02T05:31:08;76978.94;;;-141.89;70.88
64704;BME280;51130;52.298;13.686;2022-08-02T05:33:38;76972.94;;;-141.89;70.95
64704;BME280;51130;52.298;13.686;2022-08-02T05:36:05;76970.91;;;-141.89;70.77
64704;BME280;51130;52.298;13.686;2022-08-02T05:38:31;76980.94;;;-141.89;71.06
64704;BME280;51130;52.298;13.686;2022-08-02T05:41:02;76980.94;;;-141.89;70.94
64704;BME280;51130;52.298;13.686;2022-08-02T05:43:29;76982.94;;;-141.89;71.15
64704;BME280;51130;52.298;13.686;2022-08-02T05:45:55;76986.94;;;-141.89;71.02
64704;BME280;51130;52.298;13.686;2022-08-02T05:48:21;76990.94;;;-141.89;71.07
64704;BME280;51130;52.298;13.686;2022-08-02T05:50:54;76988.94;;;-141.89;71.05
64704;BME280;51130;52.298;13.686;2022-08-02T05:58:43;76990.94;;;-141.89;71.16
64704;BME280;51130;52.298;13.686;2022-08-02T06:01:16;76992.94;;;-141.89;71.00
64704;BME280;51130;52.298;13.686;2022-08-02T06:03:52;76990.94;;;-141.89;71.28
64704;BME280;51130;52.298;13.686;2022-08-02T06:06:21;76994.94;;;-141.89;71.31
64704;BME280;51130;52.298;13.686;2022-08-02T06:08:54;76998.94;;;-141.89;71.26
64704;BME280;51130;52.298;13.686;2022-08-02T06:11:23;76998.94;;;-141.89;71.24
64704;BME280;51130;52.298;13.686;2022-08-02T06:13:55;77004.94;;;-141.89;71.32
64704;BME280;51130;52.298;13.686;2022-08-02T06:16:22;77006.94;;;-141.89;71.44
64704;BME280;51130;52.298;13.686;2022-08-02T06:18:58;77006.94;;;-141.89;71.54
64704;BME280;51130;52.298;13.686;2022-08-02T06:21:25;77002.94;;;-141.89;71.44
64704;BME280;51130;52.298;13.686;2022-08-02T06:24:12;77006.94;;;-141.89;71.52
64704;BME280;51130;52.298;13.686;2022-08-02T06:26:39;77008.97;;;-141.89;71.77
64704;BME280;51130;52.298;13.686;2022-08-02T06:29:06;77006.94;;;-141.89;71.54
64704;BME280;51130;52.298;13.686;2022-08-02T06:31:33;77008.97;;;-141.89;71.55
64704;BME280;51130;52.298;13.686;2022-08-02T06:34:00;77006.94;;;-141.89;71.59
64704;BME280;51130;52.298;13.686;2022-08-02T06:39:00;77002.94;;;-141.89;71.57
64704;BME280;51130;52.298;13.686;2022-08-02T06:41:30;77002.94;;;-141.89;71.47
64704;BME280;51130;52.298;13.686;2022-08-02T06:44:00;77000.94;;;-141.89;71.59
64704;BME280;51130;52.298;13.686;2022-08-02T06:46:47;77002.94;;;-141.89;71.59
64704;BME280;51130;52.298;13.686;2022-08-02T06:49:33;77002.94;;;-141.89;71.84
64704;BME280;51130;52.298;13.686;2022-08-02T06:52:20;77008.97;;;-141.89;70.98
64704;BME280;51130;52.298;13.686;2022-08-02T06:54:53;77010.97;;;-141.89;71.00
64704;BME280;51130;52.298;13.686;2022-08-02T06:57:20;77008.97;;;-141.89;71.26
64704;BME280;51130;52.298;13.686;2022-08-02T06:59:47;77002.94;;;-141.89;71.57
64704;BME280;51130;52.298;13.686;2022-08-02T07:02:13;77002.94;;;-141.89;71.91
64704;BME280;51130;52.298;13.686;2022-08-02T07:04:39;76994.94;;;-141.89;71.22
64704;BME280;51130;52.298;13.686;2022-08-02T07:07:06;76994.94;;;-141.89;71.05
64704;BME280;51130;52.298;13.686;2022-08-02T07:09:32;76998.94;;;-141.89;70.89
64704;BME280;51130;52.298;13.686;2022-08-02T07:11:59;76998.94;;;-141.89;71.03
64704;BME280;51130;52.298;13.686;2022-08-02T07:14:25;76988.94;;;-141.89;71.36
64704;BME280;51130;52.298;13.686;2022-08-02T07:16:52;76990.94;;;-141.89;70.87
64704;BME280;51130;52.298;13.686;2022-08-02T07:19:18;76994.94;;;-141.89;70.82
64704;BME280;51130;52.298;13.686;2022-08-02T07:21:45;76990.94;;;-141.89;71.17
64704;BME280;51130;52.298;13.686;2022-08-02T07:24:22;76984.94;;;-141.89;71.41
64704;BME280;51130;52.298;13.686;2022-08-02T07:26:49;76980.94;;;-141.89;71.28
64704;BME280;51130;52.298;13.686;2022-08-02T07:29:35;76984.94;;;-141.89;71.05
64704;BME280;51130;52.298;13.686;2022-08-02T07:32:19;76986.94;;;-141.89;70.84
64704;BME280;51130;52.298;13.686;2022-08-02T07:34:46;76986.94;;;-141.89;71.32
64704;BME280;51130;52.298;13.686;2022-08-02T07:37:25;76988.94;;;-141.89;71.39
64704;BME280;51130;52.298;13.686;2022-08-02T07:40:12;76982.94;;;-141.89;71.25
64704;BME280;51130;52.298;13.686;2022-08-02T07:42:45;76978.94;;;-141.89;71.23
64704;BME280;51130;52.298;13.686;2022-08-02T07:45:12;76982.94;;;-141.89;71.49
64704;BME280;51130;52.298;13.686;2022-08-02T07:47:39;76978.94;;;-141.89;71.37
64704;BME280;51130;52.298;13.686;2022-08-02T07:50:07;76986.94;;;-141.89;71.08
64704;BME280;51130;52.298;13.686;2022-08-02T07:52:34;76984.94;;;-141.89;70.98
64704;BME280;51130;52.298;13.686;2022-08-02T07:55:00;76990.94;;;-141.89;70.99
64704;BME280;51130;52.298;13.686;2022-08-02T07:57:27;76990.94;;;-141.89;71.49
64704;BME280;51130;52.298;13.686;2022-08-02T07:59:53;76986.94;;;-141.89;71.56
64704;BME280;51130;52.298;13.686;2022-08-02T08:02:19;76986.94;;;-141.89;71.39
64704;BME280;51130;52.298;13.686;2022-08-02T08:04:46;76988.94;;;-141.89;71.29
64704;BME280;51130;52.298;13.686;2022-08-02T08:07:12;76982.94;;;-141.89;71.31
64704;BME280;51130;52.298;13.686;2022-08-02T08:09:39;76990.94;;;-141.89;71.33
64704;BME280;51130;52.298;13.686;2022-08-02T08:12:07;76992.94;;;-141.89;71.37
64704;BME280;51130;52.298;13.686;2022-08-02T08:14:35;76994.94;;;-141.89;71.75
64704;BME280;51130;52.298;13.686;2022-08-02T08:17:02;76988.94;;;-141.89;71.69
64704;BME280;51130;52.298;13.686;2022-08-02T08:19:28;76990.94;;;-141.89;71.70
64704;BME280;51130;52.298;13.686;2022-08-02T08:22:15;76986.94;;;-141.89;71.79
64704;BME280;51130;52.298;13.686;2022-08-02T08:24:41;76990.94;;;-141.89;71.59
64704;BME280;51130;52.298;13.686;2022-08-02T08:27:07;76990.94;;;-141.89;70.91
64704;BME280;51130;52.298;13.686;2022-08-02T08:29:42;76978.94;;;-141.89;70.82
64704;BME280;51130;52.298;13.686;2022-08-02T08:32:09;76978.94;;;-141.89;70.92
64704;BME280;51130;52.298;13.686;2022-08-02T08:34:44;76970.91;;;-141.89;70.51
64704;BME280;51130;52.298;13.686;2022-08-02T08:37:10;76964.91;;;-141.89;70.61
64704;BME280;51130;52.298;13.686;2022-08-02T08:39:43;76966.91;;;-141.89;70.85
64704;BME280;51130;52.298;13.686;2022-08-02T08:42:26;76962.91;;;-141.89;70.37
64704;BME280;51130;52.298;13.686;2022-08-02T08:44:54;76962.91;;;-141.89;70.85
64704;BME280;51130;52.298;13.686;2022-08-02T08:47:22;76964.91;;;-141.89;71.03
64704;BME280;51130;52.298;13.686;2022-08-02T08:49:50;76950.91;;;-141.89;70.90
64704;BME280;51130;52.298;13.686;2022-08-02T08:52:18;76954.91;;;-141.89;70.79
64704;BME280;51130;52.298;13.686;2022-08-02T08:54:45;76950.91;;;-141.89;70.75
64704;BME280;51130;52.298;13.686;2022-08-02T08:57:14;76946.91;;;-141.89;70.76
64704;BME280;51130;52.298;13.686;2022-08-02T08:59:41;76950.91;;;-141.89;70.95
64704;BME280;51130;52.298;13.686;2022-08-02T09:02:09;76946.91;;;-141.89;70.59
64704;BME280;51130;52.298;13.686;2022-08-02T09:04:47;76950.91;;;-141.89;70.64
64704;BME280;51130;52.298;13.686;2022-08-02T09:07:20;76952.91;;;-141.89;69.97
64704;BME280;51130;52.298;13.686;2022-08-02T09:09:47;76956.91;;;-141.89;70.41
64704;BME280;51130;52.298;13.686;2022-08-02T09:12:13;76950.91;;;-141.89;70.36
64704;BME280;51130;52.298;13.686;2022-08-02T09:14:40;76954.91;;;-141.89;70.07
64704;BME280;51130;52.298;13.686;2022-08-02T09:17:07;76954.91;;;-141.89;70.15
64704;BME280;51130;52.298;13.686;2022-08-02T09:19:35;76950.91;;;-141.89;70.70
64704;BME280;51130;52.298;13.686;2022-08-02T09:22:05;76954.91;;;-141.89;70.36
64704;BME280;51130;52.298;13.686;2022-08-02T09:24:46;76954.91;;;-141.89;70.45
64704;BME280;51130;52.298;13.686;2022-08-02T09:27:16;76954.91;;;-141.89;70.59
64704;BME280;51130;52.298;13.686;2022-08-02T09:29:46;76950.91;;;-141.89;70.46
64704;BME280;51130;52.298;13.686;2022-08-02T09:32:43;76946.91;;;-141.89;69.78
64704;BME280;51130;52.298;13.686;2022-08-02T09:35:10;76946.91;;;-141.89;70.22
64704;BME280;51130;52.298;13.686;2022-08-02T09:37:37;76946.91;;;-141.89;70.37
64704;BME280;51130;52.298;13.686;2022-08-02T09:40:03;76942.91;;;-141.89;69.77
64704;BME280;51130;52.298;13.686;2022-08-02T09:42:32;76942.91;;;-141.89;69.65
64704;BME280;51130;52.298;13.686;2022-08-02T09:44:59;76942.91;;;-141.89;69.94
64704;BME280;51130;52.298;13.686;2022-08-02T09:47:26;76946.91;;;-141.89;70.40
64704;BME280;51130;52.298;13.686;2022-08-02T09:49:56;76938.91;;;-141.89;70.41
64704;BME280;51130;52.298;13.686;2022-08-02T09:52:29;76930.88;;;-141.89;70.36
64704;BME280;51130;52.298;13.686;2022-08-02T09:55:08;76938.91;;;-141.89;70.54
64704;BME280;51130;52.298;13.686;2022-08-02T09:57:36;76934.91;;;-141.89;70.20
64704;BME280;51130;52.298;13.686;2022-08-02T10:00:06;76930.88;;;-141.89;70.05
64704;BME280;51130;52.298;13.686;2022-08-02T10:05:54;76930.88;;;-141.89;70.71
64704;BME280;51130;52.298;13.686;2022-08-02T10:08:27;76926.88;;;-141.89;70.72
64704;BME280;51130;52.298;13.686;2022-08-02T10:10:58;76926.88;;;-141.89;70.59
64704;BME280;51130;52.298;13.686;2022-08-02T10:13:29;76922.88;;;-141.89;70.73
64704;BME280;51130;52.298;13.686;2022-08-02T10:15:56;76930.88;;;-141.89;70.52
64704;BME280;51130;52.298;13.686;2022-08-02T10:18:23;76930.88;;;-141.89;70.77
64704;BME280;51130;52.298;13.686;2022-08-02T10:21:05;76928.88;;;-141.89;71.05
64704;BME280;51130;52.298;13.686;2022-08-02T10:23:33;76922.88;;;-141.89;71.03
64704;BME280;51130;52.298;13.686;2022-08-02T10:25:59;76930.88;;;-141.89;70.72
64704;BME280;51130;52.298;13.686;2022-08-02T10:28:28;76922.88;;;-141.89;71.02
64704;BME280;51130;52.298;13.686;2022-08-02T10:31:01;76926.88;;;-141.89;70.57
64704;BME280;51130;52.298;13.686;2022-08-02T10:33:30;76922.88;;;-141.89;70.79
64704;BME280;51130;52.298;13.686;2022-08-02T10:35:58;76934.91;;;-141.89;70.77
64704;BME280;51130;52.298;13.686;2022-08-02T10:38:32;76926.88;;;-141.89;70.72
64704;BME280;51130;52.298;13.686;2022-08-02T10:40:59;76928.88;;;-141.89;70.87
64704;BME280;51130;52.298;13.686;2022-08-02T10:54:27;76926.88;;;-141.89;70.67
64704;BME280;51130;52.298;13.686;2022-08-02T10:56:55;76922.88;;;-141.89;70.45
64704;BME280;51130;52.298;13.686;2022-08-02T10:59:24;76922.88;;;-141.89;70.83
64704;BME280;51130;52.298;13.686;2022-08-02T11:01:51;76918.88;;;-141.89;70.48
64704;BME280;51130;52.298;13.686;2022-08-02T11:04:30;76918.88;;;-141.89;70.50
64704;BME280;51130;52.298;13.686;2022-08-02T11:09:35;76918.88;;;-141.89;70.97
64704;BME280;51130;52.298;13.686;2022-08-02T11:14:36;76910.88;;;-141.89;71.16
64704;BME280;51130;52.298;13.686;2022-08-02T11:19:31;76902.88;;;-141.89;71.14
64704;BME280;51130;52.298;13.686;2022-08-02T11:22:02;76890.84;;;-141.89;71.00
64704;BME280;51130;52.298;13.686;2022-08-02T11:24:32;76896.84;;;-141.89;70.82
64704;BME280;51130;52.298;13.686;2022-08-02T11:27:15;76902.88;;;-141.89;70.89
64704;BME280;51130;52.298;13.686;2022-08-02T11:29:42;76902.88;;;-141.89;70.67
64704;BME280;51130;52.298;13.686;2022-08-02T11:32:19;76894.84;;;-141.89;70.77
64704;BME280;51130;52.298;13.686;2022-08-02T11:34:47;76890.84;;;-141.89;71.00
64704;BME280;51130;52.298;13.686;2022-08-02T11:37:26;76890.84;;;-141.89;69.31
64704;BME280;51130;52.298;13.686;2022-08-02T11:39:52;76882.84;;;-141.89;68.33
64704;BME280;51130;52.298;13.686;2022-08-02T11:42:19;76890.84;;;-141.89;68.60
64704;BME280;51130;52.298;13.686;2022-08-02T11:44:46;76882.84;;;-141.89;67.94
64704;BME280;51130;52.298;13.686;2022-08-02T11:47:14;76878.84;;;-141.89;67.41
64704;BME280;51130;52.298;13.686;2022-08-02T11:49:40;76874.84;;;-141.89;68.98
64704;BME280;51130;52.298;13.686;2022-08-02T11:52:08;76876.84;;;-141.89;69.31
64704;BME280;51130;52.298;13.686;2022-08-02T11:54:37;76876.84;;;-141.89;68.72
64704;BME280;51130;52.298;13.686;2022-08-02T11:57:08;76878.84;;;-141.89;69.45
64704;BME280;51130;52.298;13.686;2022-08-02T11:59:38;76886.84;;;-141.89;70.16
64704;BME280;51130;52.298;13.686;2022-08-02T12:02:05;76886.84;;;-141.89;69.94
64704;BME280;51130;52.298;13.686;2022-08-02T12:04:32;76886.84;;;-141.89;70.31
64704;BME280;51130;52.298;13.686;2022-08-02T12:07:00;76886.84;;;-141.89;70.38
64704;BME280;51130;52.298;13.686;2022-08-02T12:09:29;76880.84;;;-141.89;70.25
64704;BME280;51130;52.298;13.686;2022-08-02T12:11:55;76874.84;;;-141.89;70.30
64704;BME280;51130;52.298;13.686;2022-08-02T12:14:23;76872.84;;;-141.89;70.58
64704;BME280;51130;52.298;13.686;2022-08-02T12:16:50;76882.84;;;-141.89;70.59
64704;BME280;51130;52.298;13.686;2022-08-02T12:19:35;76876.84;;;-141.89;69.79
64704;BME280;51130;52.298;13.686;2022-08-02T12:24:35;76878.84;;;-141.89;70.49
64704;BME280;51130;52.298;13.686;2022-08-02T12:27:01;76884.84;;;-141.89;70.57
64704;BME280;51130;52.298;13.686;2022-08-02T12:29:32;76880.84;;;-141.89;70.79
64704;BME280;51130;52.298;13.686;2022-08-02T12:32:22;76874.84;;;-141.89;70.87
64704;BME280;51130;52.298;13.686;2022-08-02T12:34:59;76878.84;;;-141.89;70.83
64704;BME280;51130;52.298;13.686;2022-08-02T12:37:25;76868.84;;;-141.89;70.79
64704;BME280;51130;52.298;13.686;2022-08-02T12:39:52;76874.84;;;-141.89;69.97
64704;BME280;51130;52.298;13.686;2022-08-02T12:42:19;76870.84;;;-141.89;69.51
64704;BME280;51130;52.298;13.686;2022-08-02T12:44:52;76866.84;;;-141.89;70.18
64704;BME280;51130;52.298;13.686;2022-08-02T12:47:19;76866.84;;;-141.89;70.54
64704;BME280;51130;52.298;13.686;2022-08-02T12:52:33;76868.84;;;-141.89;70.57
64704;BME280;51130;52.298;13.686;2022-08-02T12:55:00;76870.84;;;-141.89;70.71
64704;BME280;51130;52.298;13.686;2022-08-02T12:57:49;76868.84;;;-141.89;70.78
64704;BME280;51130;52.298;13.686;2022-08-02T13:00:21;76866.84;;;-141.89;70.94
64704;BME280;51130;52.298;13.686;2022-08-02T13:02:48;76866.84;;;-141.89;70.85
64704;BME280;51130;52.298;13.686;2022-08-02T13:05:16;76870.84;;;-141.89;70.96
64704;BME280;51130;52.298;13.686;2022-08-02T13:07:42;76868.84;;;-141.89;70.72
64704;BME280;51130;52.298;13.686;2022-08-02T13:10:08;76870.84;;;-141.89;71.08
64704;BME280;51130;52.298;13.686;2022-08-02T13:12:35;76866.84;;;-141.89;70.79
64704;BME280;51130;52.298;13.686;2022-08-02T13:15:05;76868.84;;;-141.89;70.75
64704;BME280;51130;52.298;13.686;2022-08-02T13:17:52;76862.84;;;-141.89;71.17
64704;BME280;51130;52.298;13.686;2022-08-02T13:20:18;76858.84;;;-141.89;70.84
64704;BME280;51130;52.298;13.686;2022-08-02T13:22:45;76858.84;;;-141.89;68.84
64704;BME280;51130;52.298;13.686;2022-08-02T13:25:18;76858.84;;;-141.89;68.69